createdAt,value
2018-04-09T00:01:09.401Z,85.25
2018-04-09T00:03:37.692Z,85.92
2018-04-09T00:06:06.035Z,85.71
2018-04-09T00:08:34.360Z,85.39
2018-04-09T00:11:02.661Z,85.75
2018-04-09T00:13:31.044Z,85.71
2018-04-09T00:15:59.349Z,85.95
2018-04-09T00:18:27.805Z,86.32
2018-04-09T00:20:56.132Z,86.59
2018-04-09T00:23:24.414Z,87.22
2018-04-09T00:25:52.757Z,87.29
2018-04-09T00:28:21.036Z,87.24
2018-04-09T00:30:49.417Z,87.07
2018-04-09T00:33:17.700Z,86.88
2018-04-09T00:35:46.235Z,86.25
2018-04-09T00:38:14.569Z,87.16
2018-04-09T00:40:42.957Z,87.76
2018-04-09T00:43:11.381Z,87.33
2018-04-09T00:45:39.695Z,86.95
2018-04-09T00:48:07.978Z,87.09
2018-04-09T00:50:36.329Z,86.66
2018-04-09T00:53:04.702Z,86.73
2018-04-09T00:55:33.273Z,86.87
2018-04-09T00:58:01.573Z,87.46
2018-04-09T01:00:29.977Z,87.50
2018-04-09T01:02:58.259Z,87.63
2018-04-09T01:05:26.597Z,87.80
2018-04-09T01:07:54.920Z,88.10
2018-04-09T01:10:23.241Z,88.11
2018-04-09T01:12:51.557Z,88.77
2018-04-09T01:15:19.877Z,89.00
2018-04-09T01:17:48.289Z,89.31
2018-04-09T01:20:16.620Z,89.29
2018-04-09T01:22:44.972Z,88.33
2018-04-09T01:25:13.383Z,88.29
2018-04-09T01:27:41.749Z,88.57
2018-04-09T01:30:10.113Z,89.00
2018-04-09T01:32:38.570Z,89.11
2018-04-09T01:35:06.912Z,89.18
2018-04-09T01:37:35.195Z,88.65
2018-04-09T01:40:03.517Z,89.25
2018-04-09T01:42:31.942Z,89.63
2018-04-09T01:45:00.351Z,89.81
2018-04-09T01:47:28.849Z,89.36
2018-04-09T01:49:57.110Z,88.67
2018-04-09T01:52:25.436Z,89.19
2018-04-09T01:54:53.697Z,89.40
2018-04-09T01:57:22.180Z,89.54
2018-04-09T01:59:50.596Z,89.99
2018-04-09T02:02:18.955Z,89.04
2018-04-09T02:04:47.234Z,89.29
2018-04-09T02:07:15.585Z,89.15
2018-04-09T02:09:43.873Z,89.73
2018-04-09T02:12:12.351Z,90.16
2018-04-09T02:14:40.734Z,89.50
2018-04-09T02:17:09.081Z,89.51
2018-04-09T02:19:37.397Z,89.54
2018-04-09T02:22:05.760Z,89.57
2018-04-09T02:24:34.045Z,89.29
2018-04-09T02:27:02.515Z,89.52
2018-04-09T02:29:30.804Z,89.50
2018-04-09T02:31:59.157Z,89.72
2018-04-09T02:34:27.655Z,90.03
2018-04-09T02:37:02.769Z,90.19
2018-04-09T02:39:31.093Z,90.29
2018-04-09T02:41:59.462Z,90.77
2018-04-09T02:44:27.874Z,90.81
2018-04-09T02:46:56.238Z,90.31
2018-04-09T02:49:24.549Z,90.28
2018-04-09T02:51:52.865Z,90.25
2018-04-09T02:54:21.138Z,90.41
2018-04-09T02:56:49.609Z,90.82
2018-04-09T02:59:17.937Z,90.89
2018-04-09T03:01:46.345Z,90.32
2018-04-09T03:04:14.731Z,90.37
2018-04-09T03:06:43.091Z,90.03
2018-04-09T03:09:11.604Z,90.52
2018-04-09T03:11:39.942Z,91.03
2018-04-09T03:14:08.245Z,91.33
2018-04-09T03:16:36.574Z,91.62
2018-04-09T03:19:04.938Z,91.13
2018-04-09T03:21:33.381Z,91.15
2018-04-09T03:24:01.855Z,91.07
2018-04-09T03:26:30.202Z,91.54
2018-04-09T03:28:58.545Z,91.45
2018-04-09T03:31:26.868Z,91.17
2018-04-09T03:33:55.381Z,91.62
2018-04-09T03:36:23.896Z,92.28
2018-04-09T03:38:52.185Z,91.78
2018-04-09T03:41:20.605Z,92.15
2018-04-09T03:43:49.020Z,91.99
2018-04-09T03:46:17.330Z,91.54
2018-04-09T03:48:45.646Z,91.55
2018-04-09T03:51:14.013Z,92.10
2018-04-09T03:53:42.351Z,92.01
2018-04-09T03:56:10.685Z,91.56
2018-04-09T03:58:38.985Z,91.25
2018-04-09T04:04:03.029Z,92.04
2018-04-09T04:06:32.459Z,91.99
2018-04-09T04:09:00.812Z,91.57
2018-04-09T04:11:29.657Z,91.76
2018-04-09T04:13:57.995Z,91.80
2018-04-09T04:16:38.079Z,91.51
2018-04-09T04:21:19.989Z,91.72
2018-04-09T04:23:48.735Z,91.14
2018-04-09T04:26:18.311Z,91.46
2018-04-09T04:28:47.175Z,91.69
2018-04-09T04:31:15.594Z,91.92
2018-04-09T04:33:43.976Z,91.97
2018-04-09T04:36:12.818Z,92.15
2018-04-09T04:38:41.144Z,92.20
2018-04-09T04:41:09.637Z,92.23
2018-04-09T04:43:37.976Z,91.88
2018-04-09T04:46:06.679Z,91.30
2018-04-09T04:48:35.133Z,91.45
2018-04-09T04:51:03.804Z,91.80
2018-04-09T04:53:32.318Z,91.52
2018-04-09T04:56:00.949Z,91.21
2018-04-09T04:58:29.238Z,91.31
2018-04-09T05:00:58.105Z,91.64
2018-04-09T05:03:26.975Z,91.37
2018-04-09T05:05:55.356Z,91.47
2018-04-09T05:08:23.789Z,91.74
2018-04-09T05:10:52.589Z,91.27
2018-04-09T05:13:21.259Z,91.03
2018-04-09T05:15:49.936Z,90.45
2018-04-09T05:18:18.560Z,90.46
2018-04-09T05:20:47.514Z,89.87
2018-04-09T05:23:16.380Z,90.38
2018-04-09T05:25:44.869Z,89.04
2018-04-09T05:28:13.433Z,89.44
2018-04-09T05:30:42.297Z,88.97
2018-04-09T05:33:10.684Z,88.63
2018-04-09T05:35:39.392Z,89.56
2018-04-09T05:38:08.102Z,88.95
2018-04-09T05:40:36.817Z,87.49
2018-04-09T05:43:05.205Z,87.46
2018-04-09T05:45:33.999Z,87.44
2018-04-09T05:48:02.900Z,87.23
2018-04-09T05:50:31.375Z,86.55
2018-04-09T05:52:59.849Z,86.31
2018-04-09T05:55:28.177Z,84.90
2018-04-09T05:57:56.769Z,83.74
2018-04-09T06:00:25.219Z,82.86
2018-04-09T06:02:57.639Z,81.77
2018-04-09T06:05:26.961Z,81.98
2018-04-09T06:07:55.514Z,81.55
2018-04-09T06:10:24.717Z,80.47
2018-04-09T06:12:53.744Z,79.50
2018-04-09T06:15:22.668Z,79.10
2018-04-09T06:17:51.625Z,78.65
2018-04-09T06:20:20.391Z,77.03
2018-04-09T06:22:49.106Z,76.44
2018-04-09T06:25:17.664Z,76.16
2018-04-09T06:27:45.999Z,75.16
2018-04-09T06:30:14.548Z,74.44
2018-04-09T06:32:43.735Z,74.75
2018-04-09T06:35:16.238Z,74.56
2018-04-09T06:37:44.977Z,73.00
2018-04-09T06:40:13.461Z,71.79
2018-04-09T06:42:46.228Z,71.17
2018-04-09T06:45:15.908Z,70.23
2018-04-09T06:47:47.619Z,69.58
2018-04-09T06:50:17.099Z,68.76
2018-04-09T06:52:47.052Z,68.40
2018-04-09T06:55:18.262Z,68.27
2018-04-09T06:57:47.662Z,67.94
2018-04-09T07:00:17.165Z,66.15
2018-04-09T07:02:48.739Z,67.71
2018-04-09T07:05:17.344Z,67.95
2018-04-09T07:07:45.900Z,67.60
2018-04-09T07:10:16.353Z,66.56
2018-04-09T07:12:45.632Z,65.67
2018-04-09T07:15:15.862Z,65.88
2018-04-09T07:17:44.972Z,66.18
2018-04-09T07:20:14.247Z,65.23
2018-04-09T07:22:43.468Z,65.40
2018-04-09T07:25:12.445Z,66.10
2018-04-09T07:27:41.114Z,65.02
2018-04-09T07:30:11.003Z,63.75
2018-04-09T07:32:40.768Z,63.44
2018-04-09T07:35:09.520Z,64.00
2018-04-09T07:37:37.868Z,63.91
2018-04-09T07:40:06.392Z,63.09
2018-04-09T07:42:35.050Z,62.67
2018-04-09T07:45:03.691Z,62.44
2018-04-09T07:47:32.492Z,62.72
2018-04-09T07:50:01.094Z,61.83
2018-04-09T07:52:29.412Z,61.59
2018-04-09T07:54:58.154Z,61.41
2018-04-09T07:57:26.925Z,59.91
2018-04-09T07:59:55.571Z,59.61
2018-04-09T08:02:24.052Z,60.06
2018-04-09T08:04:52.351Z,59.29
2018-04-09T08:07:21.179Z,58.81
2018-04-09T08:09:49.488Z,58.33
2018-04-09T08:12:18.476Z,57.97
2018-04-09T08:14:46.832Z,58.16
2018-04-09T08:17:15.591Z,58.16
2018-04-09T08:19:44.165Z,58.15
2018-04-09T08:22:12.581Z,56.46
2018-04-09T08:24:40.992Z,55.90
2018-04-09T08:27:09.841Z,56.00
2018-04-09T08:29:38.562Z,55.59
2018-04-09T08:32:07.189Z,54.70
2018-04-09T08:34:35.639Z,54.53
2018-04-09T08:37:04.032Z,54.42
2018-04-09T08:39:33.056Z,52.84
2018-04-09T08:42:01.816Z,53.09
2018-04-09T08:44:30.587Z,53.47
2018-04-09T08:46:59.100Z,52.83
2018-04-09T08:49:27.383Z,52.45
2018-04-09T08:51:55.725Z,51.65
2018-04-09T08:54:24.147Z,51.94
2018-04-09T08:56:52.879Z,51.91
2018-04-09T08:59:21.565Z,50.41
2018-04-09T09:01:50.542Z,50.03
2018-04-09T09:04:19.276Z,50.10
2018-04-09T09:06:48.004Z,50.69
2018-04-09T09:09:16.664Z,50.28
2018-04-09T09:11:45.500Z,49.42
2018-04-09T09:14:14.083Z,49.00
2018-04-09T09:16:42.529Z,49.05
2018-04-09T09:19:11.054Z,48.88
2018-04-09T09:21:39.821Z,49.62
2018-04-09T09:24:15.209Z,48.15
2018-04-09T09:26:44.236Z,49.22
2018-04-09T09:29:12.843Z,47.39
2018-04-09T09:31:41.599Z,47.32
2018-04-09T09:34:10.117Z,45.19
2018-04-09T09:36:38.527Z,45.31
2018-04-09T09:39:06.848Z,45.80
2018-04-09T09:41:35.508Z,45.70
2018-04-09T09:44:04.279Z,44.23
2018-04-09T09:46:33.068Z,45.32
2018-04-09T09:49:01.499Z,44.83
2018-04-09T09:51:29.886Z,43.51
2018-04-09T09:53:58.274Z,44.21
2018-04-09T09:56:26.853Z,43.13
2018-04-09T09:58:55.723Z,43.16
2018-04-09T10:01:27.299Z,41.33
2018-04-09T10:03:55.921Z,41.06
2018-04-09T10:06:24.704Z,42.85
2018-04-09T10:08:53.365Z,43.03
2018-04-09T10:11:22.065Z,42.76
2018-04-09T10:13:50.974Z,42.67
2018-04-09T10:16:19.799Z,43.40
2018-04-09T10:18:48.695Z,43.88
2018-04-09T10:21:17.086Z,41.48
2018-04-09T10:23:45.848Z,41.19
2018-04-09T10:26:14.777Z,41.49
2018-04-09T10:28:43.688Z,40.14
2018-04-09T10:31:12.104Z,38.64
2018-04-09T10:33:40.484Z,39.37
2018-04-09T10:36:08.873Z,40.56
2018-04-09T10:38:37.374Z,38.75
2018-04-09T10:41:05.696Z,37.74
2018-04-09T10:43:34.566Z,37.97
2018-04-09T10:46:03.203Z,38.66
2018-04-09T10:48:31.971Z,39.37
2018-04-09T10:51:00.739Z,38.20
2018-04-09T10:53:29.486Z,38.31
2018-04-09T10:55:58.112Z,36.45
2018-04-09T10:58:26.449Z,37.63
2018-04-09T11:00:55.235Z,35.32
2018-04-09T11:03:24.123Z,35.97
2018-04-09T11:05:52.761Z,34.73
2018-04-09T11:08:21.650Z,34.25
2018-04-09T11:10:50.268Z,34.38
2018-04-09T11:13:19.220Z,33.71
2018-04-09T11:15:47.681Z,33.55
2018-04-09T11:18:17.130Z,32.32
2018-04-09T11:20:45.613Z,32.43
2018-04-09T11:23:14.072Z,31.79
2018-04-09T11:25:42.925Z,32.12
2018-04-09T11:28:11.505Z,31.45
2018-04-09T11:30:40.087Z,28.75
2018-04-09T11:33:08.440Z,31.65
2018-04-09T11:35:36.964Z,30.78
2018-04-09T11:38:05.513Z,29.24
2018-04-09T11:40:34.064Z,31.51
2018-04-09T11:43:02.455Z,30.52
2018-04-09T11:45:31.063Z,30.32
2018-04-09T11:47:59.775Z,32.84
2018-04-09T11:50:28.370Z,29.74
2018-04-09T11:52:57.438Z,28.74
2018-04-09T11:55:25.750Z,26.69
2018-04-09T12:00:21.472Z,27.00
2018-04-09T12:02:52.976Z,27.61
2018-04-09T12:05:21.926Z,26.98
2018-04-09T12:07:50.815Z,29.78
2018-04-09T12:10:19.435Z,28.62
2018-04-09T12:12:47.879Z,28.42
2018-04-09T12:15:16.442Z,26.71
2018-04-09T12:17:44.949Z,26.00
2018-04-09T12:20:13.818Z,24.98
2018-04-09T12:22:42.921Z,24.03
2018-04-09T12:25:11.806Z,25.56
2018-04-09T12:27:40.129Z,25.66
2018-04-09T12:30:08.714Z,26.81
2018-04-09T12:32:37.237Z,26.14
2018-04-09T12:35:05.896Z,26.82
2018-04-09T12:37:34.343Z,26.65
2018-04-09T12:40:02.770Z,26.18
2018-04-09T12:42:31.363Z,25.76
2018-04-09T12:45:00.157Z,23.94
2018-04-09T12:47:28.714Z,25.34
2018-04-09T12:49:57.393Z,23.06
2018-04-09T12:52:26.107Z,23.81
2018-04-09T12:54:54.497Z,23.50
2018-04-09T12:57:22.991Z,22.68
2018-04-09T12:59:51.521Z,22.04
2018-04-09T13:02:20.187Z,23.04
2018-04-09T13:04:48.728Z,23.14
2018-04-09T13:07:17.278Z,22.40
2018-04-09T13:09:45.804Z,24.34
2018-04-09T13:12:14.547Z,23.70
2018-04-09T13:14:42.939Z,22.57
2018-04-09T13:17:11.389Z,23.07
2018-04-09T13:19:39.721Z,22.85
2018-04-09T13:22:08.154Z,23.07
2018-04-09T13:24:37.533Z,23.04
2018-04-09T13:27:08.608Z,21.76
2018-04-09T13:29:37.032Z,20.98
2018-04-09T13:32:05.410Z,22.67
2018-04-09T13:34:33.906Z,23.49
2018-04-09T13:37:02.361Z,24.35
2018-04-09T13:39:30.898Z,26.57
2018-04-09T13:41:59.289Z,22.61
2018-04-09T13:44:27.754Z,23.71
2018-04-09T13:46:56.214Z,22.65
2018-04-09T13:49:26.893Z,22.09
2018-04-09T13:51:55.326Z,23.84
2018-04-09T13:54:23.822Z,23.90
2018-04-09T13:56:52.207Z,23.27
2018-04-09T13:59:20.509Z,23.52
2018-04-09T14:01:49.182Z,24.56
2018-04-09T14:04:17.476Z,24.32
2018-04-09T14:06:45.861Z,26.19
2018-04-09T14:09:14.420Z,27.15
2018-04-09T14:11:42.818Z,29.12
2018-04-09T14:14:11.111Z,30.54
2018-04-09T14:16:39.662Z,29.97
2018-04-09T14:19:08.318Z,29.72
2018-04-09T14:21:36.782Z,31.11
2018-04-09T14:24:05.267Z,32.51
2018-04-09T14:26:33.974Z,32.75
2018-04-09T14:29:02.475Z,34.15
2018-04-09T14:31:30.869Z,35.06
2018-04-09T14:33:59.467Z,35.02
2018-04-09T14:36:27.977Z,34.04
2018-04-09T14:38:56.913Z,34.56
2018-04-09T14:41:25.577Z,33.73
2018-04-09T14:43:54.054Z,33.87
2018-04-09T14:46:22.798Z,35.39
2018-04-09T14:48:51.757Z,34.18
2018-04-09T14:51:20.083Z,34.46
2018-04-09T14:53:48.540Z,33.57
2018-04-09T14:56:17.226Z,33.66
2018-04-09T14:58:45.818Z,33.45
2018-04-09T15:01:14.387Z,34.66
2018-04-09T15:03:43.150Z,34.33
2018-04-09T15:06:11.719Z,35.02
2018-04-09T15:08:40.398Z,35.22
2018-04-09T15:11:09.009Z,35.18
2018-04-09T15:13:37.456Z,35.13
2018-04-09T15:16:06.221Z,36.49
2018-04-09T15:18:35.011Z,35.95
2018-04-09T15:21:03.730Z,36.38
2018-04-09T15:23:32.326Z,35.92
2018-04-09T15:26:00.838Z,36.49
2018-04-09T15:28:29.383Z,37.15
2018-04-09T15:30:57.862Z,36.57
2018-04-09T15:33:26.420Z,38.15
2018-04-09T15:35:55.263Z,36.93
2018-04-09T15:38:23.784Z,37.13
2018-04-09T15:40:52.286Z,36.59
2018-04-09T15:43:21.345Z,36.94
2018-04-09T15:45:50.194Z,37.52
2018-04-09T15:48:18.578Z,37.72
2018-04-09T15:50:47.014Z,37.89
2018-04-09T15:53:15.541Z,37.80
2018-04-09T15:55:44.047Z,37.98
2018-04-09T15:58:12.549Z,38.62
2018-04-09T16:00:41.342Z,38.16
2018-04-09T16:03:09.870Z,38.33
2018-04-09T16:05:40.016Z,40.04
2018-04-09T16:08:08.510Z,39.21
2018-04-09T16:10:37.729Z,39.68
2018-04-09T16:13:06.224Z,39.56
2018-04-09T16:15:35.243Z,39.94
2018-04-09T16:18:06.670Z,40.53
2018-04-09T16:20:35.408Z,40.11
2018-04-09T16:23:03.916Z,40.31
2018-04-09T16:25:32.425Z,40.04
2018-04-09T16:28:00.909Z,40.89
2018-04-09T16:30:29.437Z,41.28
2018-04-09T16:32:58.825Z,41.09
2018-04-09T16:35:27.594Z,42.53
2018-04-09T16:37:55.940Z,41.26
2018-04-09T16:40:24.550Z,42.01
2018-04-09T16:42:52.910Z,43.63
2018-04-09T16:45:21.311Z,41.93
2018-04-09T16:47:49.882Z,43.00
2018-04-09T16:50:18.843Z,43.29
2018-04-09T16:52:47.202Z,43.41
2018-04-09T16:55:15.874Z,43.40
2018-04-09T16:57:44.936Z,43.70
2018-04-09T17:00:14.034Z,42.95
2018-04-09T17:02:42.717Z,44.14
2018-04-09T17:05:11.062Z,44.98
2018-04-09T17:07:39.778Z,43.93
2018-04-09T17:10:08.321Z,45.58
2018-04-09T17:12:37.175Z,45.70
2018-04-09T17:15:05.669Z,46.61
2018-04-09T17:17:34.534Z,47.45
2018-04-09T17:20:02.835Z,48.47
2018-04-09T17:22:31.794Z,48.46
2018-04-09T17:25:00.131Z,49.14
2018-04-09T17:27:28.910Z,47.75
2018-04-09T17:29:57.743Z,47.13
2018-04-09T17:32:26.516Z,47.14
2018-04-09T17:34:55.386Z,46.58
2018-04-09T17:37:24.058Z,48.07
2018-04-09T17:39:52.957Z,47.50
2018-04-09T17:42:21.657Z,46.88
2018-04-09T17:44:50.402Z,46.70
2018-04-09T17:47:18.962Z,47.35
2018-04-09T17:49:47.429Z,48.85
2018-04-09T17:52:15.910Z,48.58
2018-04-09T17:54:44.388Z,49.34
2018-04-09T17:57:12.982Z,49.25
2018-04-09T17:59:41.601Z,50.62
2018-04-09T18:02:10.415Z,49.88
2018-04-09T18:04:39.150Z,50.19
2018-04-09T18:07:07.526Z,51.63
2018-04-09T18:09:36.313Z,51.40
2018-04-09T18:12:05.014Z,52.11
2018-04-09T18:14:33.367Z,56.71
2018-04-09T18:17:02.490Z,51.80
2018-04-09T18:19:31.084Z,54.38
2018-04-09T18:21:59.778Z,52.54
2018-04-09T18:24:35.094Z,51.23
2018-04-09T18:27:03.737Z,52.55
2018-04-09T18:29:32.863Z,50.44
2018-04-09T18:32:01.817Z,50.90
2018-04-09T18:34:30.565Z,50.39
2018-04-09T18:36:59.438Z,51.14
2018-04-09T18:39:27.909Z,50.88
2018-04-09T18:41:57.069Z,53.14
2018-04-09T18:44:25.443Z,52.40
2018-04-09T18:46:53.916Z,51.88
2018-04-09T18:49:22.575Z,51.83
2018-04-09T18:51:51.377Z,52.26
2018-04-09T18:54:20.174Z,52.13
2018-04-09T18:56:48.882Z,52.51
2018-04-09T18:59:17.257Z,52.59
2018-04-09T19:01:45.895Z,53.04
2018-04-09T19:04:14.365Z,53.04
2018-04-09T19:06:43.055Z,54.31
2018-04-09T19:09:11.549Z,54.76
2018-04-09T19:11:40.326Z,55.62
2018-04-09T19:15:11.974Z,54.95
2018-04-09T19:17:40.378Z,55.64
2018-04-09T19:20:09.075Z,55.50
2018-04-09T19:22:38.029Z,56.52
2018-04-09T19:25:06.880Z,56.25
2018-04-09T19:27:36.276Z,56.01
2018-04-09T19:30:05.473Z,56.74
2018-04-09T19:32:34.595Z,57.33
2018-04-09T19:35:07.301Z,56.62
2018-04-09T19:37:42.035Z,58.66
2018-04-09T19:40:15.456Z,57.57
2018-04-09T19:42:44.034Z,58.92
2018-04-09T19:45:12.551Z,58.38
2018-04-09T19:47:43.521Z,57.52
2018-04-09T19:50:14.412Z,59.48
2018-04-09T19:52:47.122Z,59.00
2018-04-09T19:55:21.584Z,59.87
2018-04-09T19:57:51.881Z,59.57
2018-04-09T20:00:25.624Z,58.92
2018-04-09T20:02:55.858Z,59.05
2018-04-09T20:05:26.174Z,60.22
2018-04-09T20:07:56.337Z,59.67
2018-04-09T20:10:25.754Z,61.33
2018-04-09T20:12:55.876Z,62.24
2018-04-09T20:15:26.351Z,62.26
2018-04-09T20:17:57.555Z,62.67
2018-04-09T20:20:29.710Z,61.78
2018-04-09T20:22:58.062Z,61.21
2018-04-09T20:25:27.584Z,62.21
2018-04-09T20:28:00.501Z,61.73
2018-04-09T20:30:29.761Z,64.69
2018-04-09T20:32:58.067Z,61.93
2018-04-09T20:35:29.847Z,61.12
2018-04-09T20:38:01.082Z,61.41
2018-04-09T20:40:30.104Z,61.35
2018-04-09T20:43:01.158Z,62.31
2018-04-09T20:45:31.143Z,61.05
2018-04-09T20:48:01.764Z,61.05
2018-04-09T20:50:31.510Z,61.36
2018-04-09T20:52:59.825Z,61.08
2018-04-09T20:55:31.718Z,60.51
2018-04-09T20:58:01.531Z,60.62
2018-04-09T21:00:32.975Z,60.17
2018-04-09T21:03:01.894Z,60.40
2018-04-09T21:05:33.379Z,60.99
2018-04-09T21:08:02.732Z,60.88
2018-04-09T21:10:33.521Z,61.45
2018-04-09T21:13:04.126Z,60.27
2018-04-09T21:15:34.388Z,60.58
2018-04-09T21:18:04.594Z,61.15
2018-04-09T21:20:35.418Z,60.72
2018-04-09T21:23:05.023Z,60.88
2018-04-09T21:25:33.851Z,61.41
2018-04-09T21:28:03.966Z,61.55
2018-04-09T21:30:34.822Z,62.74
2018-04-09T21:33:04.256Z,61.99
2018-04-09T21:35:33.237Z,61.83
2018-04-09T21:38:03.363Z,61.75
2018-04-09T21:40:34.107Z,62.28
2018-04-09T21:43:02.445Z,62.56
2018-04-09T21:45:32.834Z,62.44
2018-04-09T21:48:02.902Z,62.68
2018-04-09T21:50:31.967Z,63.31
2018-04-09T21:53:01.387Z,63.04
2018-04-09T21:55:30.742Z,62.94
2018-04-09T21:58:00.133Z,62.53
2018-04-09T22:00:29.714Z,63.00
2018-04-09T22:02:59.158Z,63.13
2018-04-09T22:05:29.869Z,63.37
2018-04-09T22:07:58.998Z,63.45
2018-04-09T22:10:27.447Z,63.49
2018-04-09T22:12:58.270Z,63.54
2018-04-09T22:15:28.213Z,64.09
2018-04-09T22:17:57.714Z,64.07
2018-04-09T22:20:26.590Z,64.43
2018-04-09T22:22:55.449Z,64.85
2018-04-09T22:25:25.352Z,65.05
2018-04-09T22:27:54.063Z,66.22
2018-04-09T22:30:24.545Z,65.55
2018-04-09T22:32:54.867Z,66.10
2018-04-09T22:35:24.573Z,66.37
2018-04-09T22:37:54.299Z,66.83
2018-04-09T22:40:23.380Z,66.36
2018-04-09T22:42:52.747Z,66.62
2018-04-09T22:45:21.868Z,67.08
2018-04-09T22:47:50.763Z,67.24
2018-04-09T22:50:19.635Z,67.18
2018-04-09T22:52:48.516Z,67.47
2018-04-09T22:55:17.095Z,68.02
2018-04-09T22:57:46.868Z,67.66
2018-04-09T23:00:16.298Z,67.59
2018-04-09T23:02:45.332Z,67.69
2018-04-09T23:05:14.306Z,68.03
2018-04-09T23:07:45.798Z,68.64
2018-04-09T23:10:15.221Z,68.96
2018-04-09T23:12:45.061Z,69.09
2018-04-09T23:15:14.772Z,69.45
2018-04-09T23:17:47.018Z,69.29
2018-04-09T23:20:16.171Z,68.38
2018-04-09T23:22:49.631Z,68.17
2018-04-09T23:25:20.035Z,68.98
2018-04-09T23:27:50.026Z,68.94
2018-04-09T23:30:20.395Z,69.62
2018-04-09T23:32:50.045Z,70.49
2018-04-09T23:35:19.000Z,70.02
2018-04-09T23:37:47.994Z,70.56
2018-04-09T23:40:17.183Z,69.96
2018-04-09T23:42:46.036Z,69.73
2018-04-09T23:45:15.583Z,69.50
2018-04-09T23:47:44.538Z,70.03
2018-04-09T23:50:12.893Z,70.90
2018-04-09T23:52:41.974Z,70.91
2018-04-09T23:55:10.401Z,70.58
2018-04-09T23:57:38.937Z,70.47
